EGHH/BOH METAR and TAF weather

Enter ICAO airport designator
Station Type Date Time Source
EGHH METAR 2021/09/23 17:20 UTC NOAA

EGHH 231720Z 26007KT 9999 SCT011 BKN019 18/16 Q1019


Station Type Date Time Source
EGHH Decoded METAR 2021/09/23 17:20 UTC NOAA

Bournemouth Airport, United Kingdom (EGHH) 50-47N 001-50W 0M
Sep 23, 2021 - 01:20 PM EDT / 2021.09.23 1720 UTC
Wind: from the W (260 degrees) at 8 MPH (7 KT):0
Visibility: greater than 7 mile(s):0
Sky conditions: mostly cloudy
Temperature: 64 F (18 C)
Dew Point: 60 F (16 C)
Relative Humidity: 88%
Pressure (altimeter): 30.09 in. Hg (1019 hPa)
ob: EGHH 231720Z 26007KT 9999 SCT011 BKN019 18/16 Q1019
cycle: 17

Station Type Date Time Source
EGHH TAF 2021/08/09 18:39 UTC NOAA

TAF TAF EGHH 092234Z 0918/1021 CNL

Example: see airport list